Campanya Meteocatpedra
Centenari de l'SMC: 100 anys mirant el cel

Dades de l'estació automàtica Navata

?
?

Resum diari

23:00 TU
Dades diàries de l'estació meteorològica
Temperatura mitjana 16.8 °C
Temperatura màxima 23.6 °C 11:49 TU
Temperatura mínima 12.9 °C 23:29 TU
Humitat relativa mitjana 83%
Precipitació acumulada 5.1 mm
Ratxa màxima del vent (10 m) 34.2 km/h - 9º 13:23 TU
Irradiació solar global 8.4 MJ/m2

El tram horari està expressat en Temps Universal (TU). Cal sumar una hora en horari d'hivern i dues en horari d'estiu per passar a l'hora oficial.

Navata

Metadades estació meteorològica
Municipi Navata
Comarca Alt Empordà
Altitud 152 m
Data alta 26.08.2014
Estat actual Operativa
Dades de període
Període
TU
TM
°C
TX
°C
TN
°C
HRM
%
PPT
mm
VVM (10 m)
km/h
DVM (10 m)
graus
VVX (10 m)
km/h
RS
W/m2
00:00 - 00:30 16.0 16.1 15.9 91 0.0 4.0 193 5.8 0
00:30 - 01:00 16.0 16.3 15.7 92 0.0 3.6 239 6.1 0
01:00 - 01:30 15.7 15.8 15.4 94 0.0 4.7 231 6.1 0
01:30 - 02:00 15.5 15.7 15.1 95 0.0 5.4 247 8.3 0
02:00 - 02:30 15.0 15.1 15.0 96 0.0 5.4 260 8.3 0
02:30 - 03:00 14.9 15.0 14.9 95 0.0 2.5 289 4.7 0
03:00 - 03:30 14.7 14.8 14.5 96 0.0 4.7 290 6.8 0
03:30 - 04:00 14.8 15.0 14.6 95 0.0 2.5 282 4.7 0
04:00 - 04:30 14.7 14.9 14.5 95 0.0 4.7 292 7.6 0
04:30 - 05:00 14.6 14.7 14.5 95 0.0 4.7 251 6.8 0
05:00 - 05:30 14.9 15.1 14.7 93 0.0 4.3 230 9.0 0
05:30 - 06:00 15.0 15.2 14.9 93 0.0 7.2 226 12.2 9
06:00 - 06:30 15.2 15.3 15.0 93 0.0 5.0 269 7.9 21
06:30 - 07:00 15.3 15.8 15.1 93 0.0 4.7 273 8.3 56
07:00 - 07:30 16.3 17.0 15.8 91 0.0 5.0 256 7.9 92
07:30 - 08:00 17.7 18.1 17.0 82 0.0 5.8 306 16.2 238
08:00 - 08:30 18.6 19.7 17.6 71 0.0 13.3 9 22.0 346
08:30 - 09:00 20.2 20.9 19.7 59 0.0 12.6 11 21.2 475
09:00 - 09:30 21.1 21.5 20.8 56 0.0 11.2 7 16.9 480
09:30 - 10:00 21.3 21.7 20.8 56 0.0 10.4 353 20.5 491
10:00 - 10:30 22.0 22.5 21.5 52 0.0 11.5 5 19.4 473
10:30 - 11:00 22.5 22.8 22.0 49 0.0 7.2 3 16.9 477
11:00 - 11:30 22.6 23.2 22.3 49 0.0 6.8 5 14.0 457
11:30 - 12:00 23.2 23.6 22.6 46 0.0 4.0 48 11.2 357
12:00 - 12:30 22.2 23.0 20.5 52 0.6 10.4 7 19.8 243
12:30 - 13:00 20.4 20.5 20.2 67 0.2 4.7 206 9.7 185
13:00 - 13:30 20.8 21.0 20.4 52 0.0 16.9 15 34.2 123
13:30 - 14:00 20.2 20.4 20.0 53 0.0 13.3 6 25.6 41
14:00 - 14:30 19.5 20.1 18.3 59 0.0 7.6 173 15.5 44
14:30 - 15:00 17.3 18.4 16.2 85 0.8 13.3 231 26.6 17
15:00 - 15:30 15.9 16.2 15.8 93 0.6 10.1 231 17.3 26
15:30 - 16:00 15.7 15.9 15.5 94 0.2 10.1 234 18.4 28
16:00 - 16:30 15.6 15.6 15.4 94 0.1 9.0 265 17.6 13
16:30 - 17:00 15.4 15.4 15.3 92 0.1 9.4 241 24.1 5
17:00 - 17:30 15.1 15.3 15.0 94 0.8 11.5 240 20.9 1
17:30 - 18:00 15.0 15.1 15.0 96 0.5 10.1 241 15.1 0
18:00 - 18:30 15.1 15.1 15.0 96 0.6 9.0 248 15.8 0
18:30 - 19:00 15.0 15.1 14.9 97 0.4 7.2 273 13.7 0
19:00 - 19:30 14.9 14.9 14.9 96 0.1 6.5 253 10.1 0
19:30 - 20:00 14.9 14.9 14.8 96 0.1 5.8 253 10.4 0
20:00 - 20:30 14.8 14.9 14.7 95 0.0 5.0 276 9.4 0
20:30 - 21:00 14.7 14.8 14.7 96 0.0 5.4 251 7.9 0
21:00 - 21:30 14.6 14.7 14.5 95 0.0 6.5 256 9.0 0
21:30 - 22:00 14.3 14.6 14.0 94 0.0 5.0 241 9.7 0
22:00 - 22:30 13.8 14.0 13.3 94 0.0 2.5 259 7.2 0
22:30 - 23:00 13.6 13.9 13.3 95 0.0 5.4 225 8.6 0
23:00 - 23:30 13.4 13.8 12.9 95 0.0 5.8 276 11.2 0

Les dades en taronja només han passat un control de qualitat automàtic. Resta pendent la seva validació definitiva.